Latest Weather Observations for Winton

IDQ60801

Issued at 4:05 pm EST Wednesday 22 October 2014 (issued every 30 minutes, with the page automatically refreshed every 10 minutes)

About weather observations | Map of weather stations | Latest weather observations for QLD | Other Formats
Station Details ID: 037039 Name: WINTON AIRPORT Lat: -22.36 Lon: 143.08 Height: 192.2 m
Data from the previous 72 hours. | See also: Recent months at Winton
Date/Time
EST
Temp
°C
App
Temp
°C
Dew
Point
Rel
Hum
%
Delta-T
°C
Wind Press
QNH
hPa
Press
MSL
hPa
Rain
since 9 am
mm
Dir
 
Spd
km/h
Gust
km/h
Spd
kts
Gust
kts
22/04:00pm 34.5 27.9 -0.2 11 17.2 E 24 44 13 24 1015.7 1014.6 0.0
22/03:30pm 34.3 26.9 -0.4 11 17.1 E 28 43 15 23 1016.1 1014.9 0.0
22/03:16pm 34.0 26.8 0.6 12 16.7 E 28 46 15 25 1016.2 1015.0 0.0
22/03:00pm 34.1 28.4 0.7 12 16.7 E 20 33 11 18 1016.2 1015.0 0.0
22/02:30pm 34.3 27.9 0.8 12 16.8 E 24 41 13 22 1016.7 1015.5 0.0
22/02:00pm 34.2 28.0 1.9 13 16.5 E 24 37 13 20 1017.2 1016.0 0.0
22/01:30pm 33.4 27.8 3.3 15 15.7 E 22 35 12 19 1017.8 1016.7 0.0
22/01:00pm 32.7 26.7 3.6 16 15.1 NE 24 33 13 18 1018.4 1017.3 0.0
22/12:30pm 32.6 27.0 5.2 18 14.6 E 24 39 13 21 1018.9 1017.8 0.0
22/12:00pm 31.4 25.9 5.8 20 13.7 NE 24 32 13 17 1019.5 1018.4 0.0
22/11:30am 30.8 24.6 6.0 21 13.3 E 28 43 15 23 1020.1 1019.0 0.0
22/11:00am 30.7 25.5 7.2 23 12.8 E 24 35 13 19 1020.7 1019.6 0.0
22/10:30am 30.5 25.2 7.0 23 12.7 ENE 24 33 13 18 1021.0 1019.9 0.0
22/10:00am 28.8 23.0 6.2 24 12.0 NE 26 39 14 21 1021.2 1020.1 0.0
22/09:30am 27.4 21.5 7.3 28 10.8 ENE 28 35 15 19 1021.6 1020.4 0.0
22/09:00am 26.5 20.6 8.9 33 9.6 ENE 30 39 16 21 1021.7 1020.5 0.0
22/08:30am 25.4 19.1 9.7 37 8.7 ENE 33 43 18 23 1021.7 1020.5 0.0
22/08:00am 24.4 20.0 11.7 45 7.2 ENE 26 37 14 20 1021.6 1020.4 0.0
22/07:30am 23.0 19.6 11.1 47 6.7 NE 20 33 11 18 1021.2 1020.1 0.0
22/07:00am 21.6 18.4 9.8 47 6.4 ENE 17 20 9 11 1020.8 1019.7 0.0
22/06:30am 20.6 17.9 8.9 47 6.2 E 13 17 7 9 1020.5 1019.4 0.0
22/06:00am 20.6 17.4 9.8 50 5.8 ENE 17 22 9 12 1020.0 1018.9 0.0
22/05:30am 21.1 17.3 9.7 48 6.2 NE 20 28 11 15 1019.5 1018.4 0.0
22/05:00am 21.1 16.8 8.0 43 6.9 ENE 20 26 11 14 1019.1 1018.0 0.0
22/04:30am 21.6 16.7 7.1 39 7.5 ENE 22 28 12 15 1018.7 1017.6 0.0
22/04:00am 21.8 16.7 6.1 36 8.0 ENE 22 30 12 16 1018.5 1017.4 0.0
22/03:30am 21.8 17.2 5.7 35 8.1 E 19 24 10 13 1018.2 1017.1 0.0
22/03:00am 21.8 17.1 5.3 34 8.3 E 19 26 10 14 1018.2 1017.1 0.0
22/02:30am 21.8 17.0 4.8 33 8.4 E 19 26 10 14 1018.2 1017.1 0.0
22/02:00am 21.8 17.4 4.8 33 8.4 E 17 22 9 12 1018.5 1017.4 0.0
22/01:30am 21.8 17.8 4.8 33 8.4 E 15 19 8 10 1018.8 1017.7 0.0
22/01:00am 21.9 18.3 4.9 33 8.4 E 13 15 7 8 1018.9 1017.8 0.0
22/12:30am 22.2 18.9 4.7 32 8.7 E 11 15 6 8 1019.2 1018.1 0.0
22/12:00am 23.3 19.7 4.8 30 9.3 E 13 19 7 10 1019.4 1018.3 0.0
 
Date/Time
EST
Temp
°C
App
Temp
°C
Dew
Point
Rel
Hum
%
Delta-T
°C
Wind Press
QNH
hPa
Press
MSL
hPa
Rain
since 9 am
mm
Dir
 
Spd
km/h
Gust
km/h
Spd
kts
Gust
kts
21/11:30pm 24.2 19.9 5.1 29 9.7 E 17 19 9 10 1019.5 1018.4 0.0
21/11:00pm 24.4 20.0 4.7 28 9.9 E 17 20 9 11 1019.6 1018.5 0.0
21/10:30pm 25.6 20.7 5.2 27 10.5 E 20 28 11 15 1019.7 1018.6 0.0
21/10:00pm 25.9 21.7 5.5 27 10.5 E 17 22 9 12 1019.7 1018.6 0.0
21/09:30pm 25.8 21.8 4.9 26 10.7 E 15 19 8 10 1019.4 1018.3 0.0
21/09:00pm 26.0 22.3 4.5 25 10.9 E 13 15 7 8 1019.1 1018.0 0.0
21/08:30pm 26.7 23.0 4.5 24 11.3 E 13 17 7 9 1018.8 1017.7 0.0
21/08:00pm 27.8 23.7 4.2 22 12.0 E 15 20 8 11 1018.5 1017.4 0.0
21/07:30pm 28.8 24.3 4.3 21 12.6 E 17 20 9 11 1018.1 1017.0 0.0
21/07:00pm 29.8 24.8 4.4 20 13.2 E 20 30 11 16 1017.8 1016.7 0.0
21/06:30pm 30.8 24.9 3.8 18 13.9 E 24 33 13 18 1017.4 1016.3 0.0
21/06:00pm 31.9 25.6 3.8 17 14.6 E 26 37 14 20 1017.1 1015.9 0.0
21/05:30pm 32.6 25.7 4.4 17 14.9 E 30 39 16 21 1016.8 1015.6 0.0
21/05:20pm 32.9 25.8 3.8 16 15.2 E 30 48 16 26 1016.6 1015.4 0.0
21/05:00pm 33.3 26.9 5.0 17 15.1 E 28 39 15 21 1016.6 1015.4 0.0
21/04:30pm 33.3 26.7 4.1 16 15.4 E 28 41 15 22 1016.4 1015.2 0.0
21/04:00pm 33.5 26.5 4.2 16 15.5 E 30 41 16 22 1016.5 1015.3 0.0
21/03:30pm 33.9 26.6 4.6 16 15.6 E 32 43 17 23 1016.6 1015.4 0.0
21/03:00pm 34.2 28.7 5.7 17 15.5 E 24 43 13 23 1016.8 1015.6 0.0
21/02:39pm 33.8 27.3 4.5 16 15.6 ESE 28 46 15 25 1017.2 1016.0 0.0
21/02:30pm 33.1 27.5 5.6 18 14.8 ESE 24 41 13 22 1017.4 1016.3 0.0
21/02:19pm 33.4 27.0 5.0 17 15.2 ESE 28 46 15 25 1017.6 1016.5 0.0
21/02:00pm 33.2 27.5 4.9 17 15.1 E 24 43 13 23 1017.9 1016.8 0.0
21/01:30pm 32.4 25.0 4.2 17 14.8 ESE 32 48 17 26 1018.6 1017.5 0.0
21/01:00pm 32.4 26.5 5.8 19 14.3 E 26 41 14 22 1019.2 1018.1 0.0
21/12:30pm 32.1 26.3 6.3 20 14.0 E 26 41 14 22 1019.8 1018.7 0.0
21/12:00pm 32.1 26.3 6.3 20 14.0 E 26 43 14 23 1020.4 1019.3 0.0
21/11:30am 30.8 25.3 6.0 21 13.3 E 24 37 13 20 1020.9 1019.8 0.0
21/11:00am 30.7 26.3 7.2 23 12.8 E 20 33 11 18 1021.2 1020.1 0.0
21/10:30am 29.8 24.9 7.1 24 12.3 ENE 22 33 12 18 1021.6 1020.4 0.0
21/10:00am 29.2 23.7 7.7 26 11.7 NE 26 35 14 19 1021.9 1020.7 0.0
21/09:30am 27.8 22.8 8.1 29 10.8 NE 24 32 13 17 1022.1 1021.0 0.0
21/09:00am 27.1 21.6 9.0 32 10.0 NE 28 35 15 19 1021.9 1020.7 0.0
21/08:30am 26.4 22.1 10.9 38 8.8 NE 24 33 13 18 1022.0 1020.9 0.0
21/08:00am 24.1 20.5 10.7 43 7.5 NNE 20 30 11 16 1021.6 1020.4 0.0
21/07:30am 22.4 19.2 8.5 41 7.4 NE 15 20 8 11 1021.1 1020.0 0.0
21/07:00am 20.8 17.9 6.4 39 7.3 ENE 11 15 6 8 1020.8 1019.7 0.0
21/06:30am 19.0 16.2 5.1 40 6.8 NE 9 11 5 6 1019.9 1018.8 0.0
21/06:00am 18.1 14.9 5.0 42 6.3 NNE 11 13 6 7 1019.3 1018.2 0.0
21/05:30am 17.9 14.5 3.8 39 6.7 NNE 11 11 6 6 1018.9 1017.8 0.0
21/05:00am 18.4 14.7 2.3 34 7.4 NNE 11 13 6 7 1018.5 1017.4 0.0
21/04:30am 20.0 14.8 2.4 31 8.2 NE 19 24 10 13 1018.1 1017.0 0.0
21/04:00am 20.4 15.9 2.3 30 8.5 ENE 15 20 8 11 1017.9 1016.8 0.0
21/03:30am 18.7 14.7 0.8 30 8.0 E 11 15 6 8 1017.8 1016.7 0.0
21/03:00am 19.2 15.7 1.2 30 8.2 E 9 11 5 6 1017.7 1016.6 0.0
21/02:30am 19.9 16.1 1.8 30 8.4 E 11 13 6 7 1017.7 1016.6 0.0
21/02:00am 19.2 15.2 0.8 29 8.3 E 11 15 6 8 1017.9 1016.8 0.0
21/01:30am 19.2 16.1 1.2 30 8.2 E 7 9 4 5 1018.2 1017.1 0.0
21/01:00am 19.3 15.7 0.8 29 8.3 E 9 11 5 6 1018.5 1017.4 0.0
21/12:30am 19.6 15.6 0.6 28 8.6 E 11 13 6 7 1018.8 1017.7 0.0
21/12:00am 20.6 17.1 1.5 28 8.8 E 9 9 5 5 1019.0 1017.9 0.0
 
Date/Time
EST
Temp
°C
App
Temp
°C
Dew
Point
Rel
Hum
%
Delta-T
°C
Wind Press
QNH
hPa
Press
MSL
hPa
Rain
since 9 am
mm
Dir
 
Spd
km/h
Gust
km/h
Spd
kts
Gust
kts
20/11:30pm 21.5 18.5 1.7 27 9.2 ESE 7 9 4 5 1019.1 1018.0 0.0
20/11:00pm 22.3 19.0 2.4 27 9.5 ESE 9 11 5 6 1019.1 1018.0 0.0
20/10:30pm 22.9 19.6 2.4 26 9.8 E 9 11 5 6 1019.2 1018.1 0.0
20/10:00pm 24.4 20.8 3.1 25 10.4 ENE 11 13 6 7 1019.1 1018.0 0.0
20/09:30pm 25.6 21.7 3.6 24 11.0 ENE 13 17 7 9 1019.0 1017.9 0.0
20/09:00pm 26.6 22.8 3.8 23 11.5 ENE 13 17 7 9 1018.8 1017.7 0.0
20/08:30pm 27.3 23.1 3.7 22 11.9 E 15 19 8 10 1018.4 1017.3 0.0
20/08:00pm 27.8 23.9 3.5 21 12.2 E 13 17 7 9 1018.2 1017.1 0.0
20/07:30pm 28.9 24.7 3.7 20 12.8 E 15 17 8 9 1017.8 1016.7 0.0
20/07:00pm 30.2 25.4 4.8 20 13.3 E 19 26 10 14 1017.4 1016.3 0.0
20/06:30pm 31.1 25.5 3.2 17 14.3 ESE 22 28 12 15 1017.0 1015.8 0.0
20/06:00pm 32.1 26.1 3.1 16 14.9 ESE 24 33 13 18 1016.7 1015.5 0.0
20/05:30pm 32.8 26.9 3.7 16 15.2 E 24 35 13 19 1016.3 1015.1 0.0
20/05:00pm 33.1 26.5 2.1 14 15.8 E 26 39 14 21 1016.1 1014.9 0.0
20/04:30pm 33.5 28.1 2.4 14 16.0 ESE 20 32 11 17 1016.1 1014.9 0.0
20/04:00pm 33.3 27.7 0.1 12 16.4 SE 19 30 10 16 1016.2 1015.0 0.0
20/03:30pm 33.6 28.4 0.3 12 16.5 SE 17 37 9 20 1016.2 1015.0 0.0
20/03:16pm 33.6 26.3 0.3 12 16.5 E 28 41 15 22 1016.3 1015.1 0.0
20/03:00pm 33.8 29.4 0.5 12 16.6 E 13 19 7 10 1016.5 1015.3 0.0
20/02:30pm 33.7 28.1 1.5 13 16.3 E 20 32 11 17 1016.9 1015.7 0.0
20/02:00pm 32.2 25.9 1.3 14 15.4 ESE 24 35 13 19 1017.4 1016.3 0.0
20/01:30pm 33.7 28.1 3.5 15 15.8 E 22 33 12 18 1017.8 1016.7 0.0
20/01:00pm 33.0 28.2 5.5 18 14.8 E 20 39 11 21 1018.5 1017.4 0.0
20/12:30pm 32.0 26.6 4.7 18 14.4 E 22 39 12 21 1019.3 1018.2 0.0
20/12:00pm 31.6 26.1 5.9 20 13.8 E 24 41 13 22 1019.7 1018.6 0.0
20/11:30am 30.7 25.5 7.2 23 12.8 E 24 41 13 22 1020.4 1019.3 0.0
20/11:00am 30.3 24.4 7.5 24 12.5 ENE 28 37 15 20 1020.9 1019.8 0.0
20/10:30am 29.8 23.2 7.7 25 12.1 ENE 32 41 17 22 1021.1 1020.0 0.0
20/10:00am 28.8 22.4 8.5 28 11.2 ENE 32 43 17 23 1021.8 1020.6 0.0
20/09:30am 27.7 21.4 9.0 31 10.4 NE 32 41 17 22 1022.1 1021.0 0.0
20/09:00am 27.7 22.2 10.4 34 9.8 NE 30 39 16 21 1022.3 1021.2 0.0
20/08:30am 25.9 20.8 10.5 38 8.7 NE 28 35 15 19 1022.1 1021.0 0.0
20/08:00am 25.0 21.3 11.6 43 7.6 NE 22 32 12 17 1022.0 1020.9 0.0
20/07:30am 23.1 19.2 10.9 46 6.8 NE 22 28 12 15 1021.9 1020.7 0.0
20/07:00am 21.5 18.1 9.1 45 6.6 NE 17 22 9 12 1021.3 1020.2 0.0
20/06:30am 20.2 16.0 7.6 44 6.5 NNE 19 24 10 13 1020.8 1019.7 0.0
20/06:00am 20.3 16.2 7.7 44 6.5 NE 19 22 10 12 1020.4 1019.3 0.0
20/05:30am 20.7 16.6 7.7 43 6.8 NE 19 22 10 12 1020.1 1019.0 0.0
20/05:00am 21.1 16.2 7.0 40 7.2 NE 22 32 12 17 1019.8 1018.7 0.0
20/04:30am 22.3 17.2 7.7 39 7.7 ENE 24 32 13 17 1019.5 1018.4 0.0
20/04:00am 22.5 17.7 7.5 38 7.8 ENE 22 30 12 16 1019.6 1018.5 0.0
20/03:30am 22.6 17.8 7.2 37 8.0 ENE 22 28 12 15 1019.4 1018.3 0.0
20/03:00am 22.8 18.3 7.0 36 8.2 E 20 28 11 15 1019.6 1018.5 0.0
20/02:30am 22.8 18.4 6.6 35 8.4 E 19 22 10 12 1019.5 1018.4 0.0
20/02:00am 22.6 18.1 6.0 34 8.5 E 19 24 10 13 1019.6 1018.5 0.0
20/01:30am 22.9 18.3 5.8 33 8.7 E 19 28 10 15 1019.4 1018.3 0.0
20/01:00am 23.1 18.3 5.5 32 8.9 E 20 26 11 14 1019.7 1018.6 0.0
20/12:30am 23.4 18.7 5.3 31 9.2 E 19 24 10 13 1019.9 1018.8 0.0
20/12:00am 23.6 18.7 5.0 30 9.4 E 20 28 11 15 1020.0 1018.9 0.0
 
Date/Time
EST
Temp
°C
App
Temp
°C
Dew
Point
Rel
Hum
%
Delta-T
°C
Wind Press
QNH
hPa
Press
MSL
hPa
Rain
since 9 am
mm
Dir
 
Spd
km/h
Gust
km/h
Spd
kts
Gust
kts
19/11:30pm 24.0 19.4 5.4 30 9.5 ESE 19 26 10 14 1020.1 1019.0 0.0
19/11:00pm 25.0 20.8 5.7 29 9.9 E 17 20 9 11 1020.1 1019.0 0.0
19/10:30pm 25.5 20.9 5.7 28 10.2 E 19 26 10 14 1020.1 1019.0 0.0
19/10:00pm 26.6 22.0 6.6 28 10.5 E 20 26 11 14 1020.1 1019.0 0.0
19/09:30pm 26.6 22.0 6.6 28 10.6 E 20 24 11 13 1020.0 1018.9 0.0
19/09:00pm 26.4 21.9 5.9 27 10.7 E 19 22 10 12 1019.6 1018.5 0.0
19/08:30pm 26.3 22.4 5.3 26 10.8 E 15 19 8 10 1019.3 1018.2 0.0
19/08:00pm 27.0 23.6 5.9 26 11.0 E 13 15 7 8 1018.9 1017.8 0.0
19/07:30pm 28.5 24.9 6.6 25 11.7 ENE 15 20 8 11 1018.6 1017.5 0.0
19/07:00pm 29.3 24.9 6.7 24 12.1 E 19 26 10 14 1018.0 1016.9 0.0
19/06:30pm 30.1 24.0 6.7 23 12.6 E 28 35 15 19 1017.4 1016.3 0.0
19/06:00pm 31.0 24.0 6.1 21 13.4 E 32 39 17 21 1017.0 1015.8 0.0
19/05:30pm 31.6 25.5 6.6 21 13.6 E 28 35 15 19 1016.8 1015.6 0.0
19/05:00pm 32.3 26.8 5.7 19 14.3 ESE 24 32 13 17 1016.6 1015.4 0.0
19/04:42pm 32.4 26.1 5.8 19 14.3 ESE 28 46 15 25 1016.6 1015.4 0.0
19/04:30pm 32.8 26.8 5.4 18 14.7 E 26 37 14 20 1016.5 1015.3 0.0

Other Formats:

Comma delimited format used in spreadsheet applications
http://www.bom.gov.au/fwo/IDQ60801/IDQ60801.94342.axf

JavaScript Object Notation format (JSON) in row-major order
http://www.bom.gov.au/fwo/IDQ60801/IDQ60801.94342.json